Airport ID:K77S
Update Time (UTC):09/12/2022 05:11
Wind Speed (Knots):6
Wind Direction (Magnetic):180
Temperature (°C):4
Dew Point (°C):4
Humidity (%):100
Altimeter (inHg):30.06
Density Altitude (Feet):
Visibility (Miles):8
Clouds (Hundreds of feet):FEW015 BKN024 OVC034
Present Weather:
METAR:METAR K77S 090510Z AUTO 20006KT 8SM FEW015 BKN024 OVC034 04/04 A3006 RMK A01

The data displayed is for advisory purposes only and is not to be used for flight planning or operations.